Time;durP1;ratioP1;P1;durP2;ratioP2;P2;SDS_P1;SDS_P2;PMS_P1;PMS_P2;Temp;Humidity;BMP_temperature;BMP_pressure;BME280_temperature;BME280_humidity;BME280_pressure;Samples;Min_cycle;Max_cycle;Signal;HPM_P1;HPM_P2
2022/08/22 00:01:44;;;;;;;9.17;4.80;;;17.50;99.90;;;;;;4998351;28;20501;-64
2022/08/22 00:04:47;;;;;;;6.67;4.70;;;17.50;99.90;;;;;;5000836;28;20429;-64
2022/08/22 00:07:22;;;;;;;6.03;4.70;;;17.50;99.90;;;;;;4998279;28;20434;-64
2022/08/22 00:10:02;;;;;;;5.20;4.10;;;17.50;99.90;;;;;;5000851;28;20458;-64
2022/08/22 00:12:39;;;;;;;5.90;5.30;;;17.50;99.90;;;;;;5002403;28;20512;-63
2022/08/22 00:15:20;;;;;;;6.43;4.60;;;17.50;99.90;;;;;;4997181;28;20475;-64
2022/08/22 00:18:02;;;;;;;5.27;4.10;;;17.50;99.90;;;;;;5002243;28;20528;-64
2022/08/22 00:20:40;;;;;;;4.50;4.10;;;17.30;99.90;;;;;;5001086;28;20458;-64
2022/08/22 00:23:16;;;;;;;7.57;5.40;;;17.40;99.90;;;;;;4997128;28;20434;-64
2022/08/22 00:25:58;;;;;;;6.47;4.67;;;17.50;99.90;;;;;;4992905;28;20444;-64
2022/08/22 00:28:37;;;;;;;5.37;4.30;;;17.50;99.90;;;;;;5002411;28;20457;-64
2022/08/22 00:31:18;;;;;;;5.10;4.57;;;17.50;99.90;;;;;;4995093;28;20466;-64
2022/08/22 00:34:11;;;;;;;6.53;4.40;;;17.40;99.90;;;;;;5000152;28;20541;-64
2022/08/22 00:36:50;;;;;;;5.30;4.60;;;17.30;99.90;;;;;;4999637;28;20457;-64
2022/08/22 00:39:23;;;;;;;4.83;4.43;;;17.20;99.90;;;;;;4998078;28;20508;-64
2022/08/22 00:41:58;;;;;;;5.43;4.50;;;17.20;99.90;;;;;;5001339;28;20438;-64
2022/08/22 00:45:02;;;;;;;5.07;4.20;;;17.10;99.90;;;;;;5000562;28;20433;-64
2022/08/22 00:47:36;;;;;;;6.27;4.40;;;17.10;99.90;;;;;;4998438;28;20438;-64
2022/08/22 00:50:02;;;;;;;5.27;4.87;;;17.20;99.90;;;;;;4993298;28;20958;-64
2022/08/22 00:53:12;;;;;;;4.27;3.87;;;17.20;99.90;;;;;;5001772;28;20453;-64
2022/08/22 00:55:43;;;;;;;5.30;4.60;;;17.20;99.90;;;;;;4968733;28;20199;-64
2022/08/22 00:58:37;;;;;;;6.67;4.43;;;17.20;99.90;;;;;;4997352;28;20545;-64
2022/08/22 01:01:10;;;;;;;7.30;5.07;;;17.20;99.90;;;;;;4995886;28;20505;-64
2022/08/22 01:03:47;;;;;;;4.50;4.10;;;17.00;99.90;;;;;;4996445;28;20449;-64
2022/08/22 01:06:15;;;;;;;4.80;4.40;;;16.90;99.90;;;;;;4995207;28;20484;-63
2022/08/22 01:09:00;;;;;;;4.30;3.90;;;16.90;99.90;;;;;;4996421;28;20449;-64
2022/08/22 01:11:38;;;;;;;4.93;3.90;;;16.90;99.90;;;;;;4997985;28;20538;-64
2022/08/22 01:14:09;;;;;;;4.77;4.30;;;16.90;99.90;;;;;;4992824;28;20528;-64
2022/08/22 01:16:57;;;;;;;5.30;4.77;;;16.90;99.90;;;;;;5002617;28;20956;-64
2022/08/22 01:20:00;;;;;;;5.97;4.50;;;16.90;99.90;;;;;;4994976;28;20457;-64
2022/08/22 01:23:02;;;;;;;4.20;3.90;;;17.00;99.90;;;;;;4995968;28;20437;-64
2022/08/22 01:25:46;;;;;;;4.77;3.90;;;17.00;99.90;;;;;;4993043;28;20875;-64
2022/08/22 01:28:18;;;;;;;4.97;4.10;;;17.00;99.90;;;;;;4990433;28;20427;-64
2022/08/22 01:30:48;;;;;;;5.87;4.50;;;16.90;99.90;;;;;;4999331;28;20454;-64
2022/08/22 01:33:48;;;;;;;4.80;4.03;;;16.80;99.90;;;;;;4997278;28;20826;-64
2022/08/22 01:36:28;;;;;;;5.10;4.47;;;16.70;99.90;;;;;;4992150;28;20430;-64
2022/08/22 01:39:05;;;;;;;5.60;4.50;;;16.60;99.90;;;;;;4992726;28;20445;-64
2022/08/22 01:42:03;;;;;;;4.90;4.50;;;16.60;99.90;;;;;;4996478;28;20433;-64
2022/08/22 01:44:55;;;;;;;4.43;4.03;;;16.60;99.90;;;;;;4998956;28;20565;-64
2022/08/22 01:47:36;;;;;;;8.10;4.60;;;16.70;99.90;;;;;;5004343;28;20445;-64
2022/08/22 01:50:17;;;;;;;5.67;5.13;;;16.80;99.90;;;;;;4989495;28;20584;-64
2022/08/22 01:53:04;;;;;;;7.33;4.53;;;16.70;99.90;;;;;;4995213;28;20446;-64
2022/08/22 01:56:10;;;;;;;4.93;4.50;;;16.60;99.90;;;;;;4997530;28;20503;-64
2022/08/22 01:58:44;;;;;;;7.03;4.47;;;16.40;99.90;;;;;;4996745;28;20445;-64
2022/08/22 02:01:12;;;;;;;4.77;4.13;;;16.30;99.90;;;;;;4996804;28;20977;-64
2022/08/22 02:03:41;;;;;;;7.77;4.60;;;16.20;99.90;;;;;;4995012;28;20450;-64
2022/08/22 02:06:18;;;;;;;5.70;4.80;;;16.20;99.90;;;;;;4996459;28;20551;-64
2022/08/22 02:09:02;;;;;;;5.37;4.27;;;16.30;99.90;;;;;;4996238;28;20814;-64
2022/08/22 02:11:49;;;;;;;4.97;4.10;;;16.30;99.90;;;;;;4993272;28;20442;-64
2022/08/22 02:14:35;;;;;;;4.90;4.50;;;16.30;99.90;;;;;;4988747;28;20497;-63
2022/08/22 02:17:16;;;;;;;5.23;3.97;;;16.30;99.90;;;;;;4992339;28;20574;-63
2022/08/22 02:20:00;;;;;;;5.10;4.40;;;16.30;99.90;;;;;;4991546;28;20455;-64
2022/08/22 02:22:52;;;;;;;4.73;4.23;;;16.30;99.90;;;;;;4989119;28;20446;-64
2022/08/22 02:25:25;;;;;;;6.90;5.60;;;16.20;99.90;;;;;;4989913;28;20441;-64
2022/08/22 02:27:53;;;;;;;5.90;5.30;;;16.30;99.90;;;;;;4992129;28;20441;-64
2022/08/22 02:30:27;;;;;;;9.97;5.83;;;16.30;99.90;;;;;;4998954;28;20495;-64
2022/08/22 02:33:01;;;;;;;5.03;4.53;;;16.30;99.90;;;;;;4999051;28;20446;-64
2022/08/22 02:35:38;;;;;;;4.80;4.40;;;16.30;99.90;;;;;;4990460;28;20616;-64
2022/08/22 02:38:14;;;;;;;5.00;4.50;;;16.30;99.90;;;;;;4993698;28;20722;-64
2022/08/22 02:40:46;;;;;;;4.33;3.93;;;16.20;99.90;;;;;;4991100;28;20836;-64
2022/08/22 02:43:50;;;;;;;5.00;4.47;;;16.20;99.90;;;;;;4991077;28;20505;-64
2022/08/22 02:46:16;;;;;;;7.00;4.33;;;16.20;99.90;;;;;;4989429;28;20442;-64
2022/08/22 02:49:03;;;;;;;4.20;3.90;;;16.20;99.90;;;;;;4992132;28;20819;-63
2022/08/22 02:51:52;;;;;;;7.53;3.97;;;16.10;99.90;;;;;;4991530;28;20218;-64
2022/08/22 02:54:40;;;;;;;6.00;5.50;;;15.90;99.90;;;;;;4988081;28;20952;-64
2022/08/22 02:57:21;;;;;;;6.07;4.50;;;15.90;99.90;;;;;;4992677;28;20733;-64
2022/08/22 03:00:21;;;;;;;7.47;4.37;;;15.80;99.90;;;;;;4994685;28;20510;-64
2022/08/22 03:02:55;;;;;;;5.80;4.53;;;15.80;99.90;;;;;;4991841;28;21022;-64
2022/08/22 03:05:36;;;;;;;5.50;4.93;;;15.80;99.90;;;;;;4994240;28;20798;-63
2022/08/22 03:08:11;;;;;;;6.03;4.10;;;15.90;99.90;;;;;;4991509;28;20434;-64
2022/08/22 03:10:43;;;;;;;6.47;4.50;;;15.80;99.90;;;;;;5000842;28;20452;-64
2022/08/22 03:13:24;;;;;;;6.83;4.80;;;15.90;99.90;;;;;;4991160;28;20438;-64
2022/08/22 03:16:02;;;;;;;6.43;5.33;;;15.80;99.90;;;;;;4993449;28;20455;-63
2022/08/22 03:18:40;;;;;;;4.23;3.80;;;15.80;99.90;;;;;;4989983;28;20434;-63
2022/08/22 03:21:26;;;;;;;5.40;4.50;;;15.80;99.90;;;;;;4992790;28;20561;-64
2022/08/22 03:24:16;;;;;;;5.00;4.60;;;15.80;99.90;;;;;;4990993;28;20462;-64
2022/08/22 03:27:04;;;;;;;4.80;4.40;;;15.90;99.90;;;;;;4990054;28;20814;-64
2022/08/22 03:29:39;;;;;;;12.83;6.27;;;15.90;99.90;;;;;;4991786;28;20842;-64
2022/08/22 03:32:19;;;;;;;5.87;5.23;;;15.90;99.90;;;;;;4991427;28;20442;-64
2022/08/22 03:35:08;;;;;;;5.33;4.83;;;15.80;99.90;;;;;;4996029;28;20947;-64
2022/08/22 03:37:39;;;;;;;5.60;4.47;;;15.70;99.90;;;;;;4987035;28;20798;-64
2022/08/22 03:40:33;;;;;;;4.97;4.47;;;15.70;99.90;;;;;;4991199;28;20454;-64
2022/08/22 03:43:25;;;;;;;5.93;5.40;;;15.50;99.90;;;;;;4985521;28;20462;-64
2022/08/22 03:46:00;;;;;;;6.00;5.40;;;15.50;99.90;;;;;;4992583;28;20438;-64
2022/08/22 03:49:10;;;;;;;5.37;4.80;;;15.40;99.90;;;;;;4994329;28;20470;-64
2022/08/22 03:51:51;;;;;;;7.10;5.67;;;15.40;99.90;;;;;;4971433;28;20799;-64
2022/08/22 03:54:46;;;;;;;12.00;6.80;;;15.40;99.90;;;;;;4986644;28;20442;-63
2022/08/22 03:57:23;;;;;;;7.90;6.87;;;15.40;99.90;;;;;;4982598;28;20478;-64
2022/08/22 04:00:13;;;;;;;7.20;6.50;;;15.40;99.90;;;;;;4995911;28;20474;-64
2022/08/22 04:02:48;;;;;;;7.80;6.77;;;15.30;99.90;;;;;;4993605;28;20489;-64
2022/08/22 04:05:53;;;;;;;7.07;6.47;;;15.30;99.90;;;;;;4991676;28;20438;-64
2022/08/22 04:08:55;;;;;;;8.90;8.00;;;15.30;99.90;;;;;;4986541;28;20441;-64
2022/08/22 04:11:58;;;;;;;7.43;6.73;;;15.30;99.90;;;;;;4990554;28;20557;-64
2022/08/22 04:14:46;;;;;;;9.57;7.13;;;15.30;99.90;;;;;;4988625;28;20967;-64
2022/08/22 04:17:48;;;;;;;6.93;6.23;;;15.40;99.90;;;;;;4986940;28;20466;-64
2022/08/22 04:20:43;;;;;;;9.60;6.90;;;15.10;99.90;;;;;;4989313;28;20452;-64
2022/08/22 04:23:27;;;;;;;7.37;6.77;;;15.00;99.90;;;;;;4984417;28;20516;-64
2022/08/22 04:26:00;;;;;;;7.93;7.13;;;15.00;99.90;;;;;;4992361;28;20442;-63
2022/08/22 04:28:53;;;;;;;9.60;6.63;;;15.10;99.90;;;;;;4989820;28;20431;-64
2022/08/22 04:31:28;;;;;;;10.97;7.23;;;15.10;99.90;;;;;;4990449;28;20430;-64
2022/08/22 04:34:05;;;;;;;10.10;6.63;;;15.00;99.90;;;;;;5001031;28;20447;-64
2022/08/22 04:36:42;;;;;;;7.77;7.03;;;14.90;99.90;;;;;;4998254;28;20442;-64
2022/08/22 04:39:17;;;;;;;8.17;6.67;;;14.80;99.90;;;;;;4988097;28;20512;-64
2022/08/22 04:42:04;;;;;;;7.60;6.57;;;14.80;99.90;;;;;;4993993;28;20492;-64
2022/08/22 04:45:04;;;;;;;9.17;5.97;;;14.80;99.90;;;;;;4990409;28;20509;-63
2022/08/22 04:47:44;;;;;;;6.93;6.40;;;14.80;99.90;;;;;;4983989;28;20566;-64
2022/08/22 04:50:30;;;;;;;7.33;6.10;;;14.80;99.90;;;;;;4986520;28;21029;-64
2022/08/22 04:53:07;;;;;;;7.83;6.90;;;14.80;99.90;;;;;;4986827;28;20781;-64
2022/08/22 04:55:32;;;;;;;6.97;6.13;;;14.80;99.90;;;;;;4990905;28;20434;-63
2022/08/22 04:58:19;;;;;;;6.80;6.20;;;14.90;99.90;;;;;;4990307;28;20440;-64
2022/08/22 05:01:05;;;;;;;6.80;6.20;;;15.00;99.90;;;;;;4987239;28;20218;-64
2022/08/22 05:03:38;;;;;;;7.53;5.90;;;15.10;99.90;;;;;;4985085;28;20462;-64
2022/08/22 05:06:05;;;;;;;6.23;5.63;;;15.10;99.90;;;;;;4990955;28;20442;-64
2022/08/22 05:08:38;;;;;;;6.77;6.17;;;15.20;99.90;;;;;;4990398;28;20950;-64
2022/08/22 05:11:06;;;;;;;7.90;7.07;;;15.50;99.90;;;;;;4990128;28;20466;-64
2022/08/22 05:13:38;;;;;;;7.43;6.70;;;15.70;99.90;;;;;;4990151;28;20438;-64
2022/08/22 05:16:17;;;;;;;6.70;6.10;;;15.90;99.90;;;;;;4989587;28;20525;-64
2022/08/22 05:18:58;;;;;;;6.40;5.80;;;15.90;99.90;;;;;;4989227;28;20442;-64
2022/08/22 05:21:28;;;;;;;12.43;6.60;;;15.90;99.90;;;;;;4990320;28;20772;-64
2022/08/22 05:24:01;;;;;;;7.30;6.33;;;15.90;99.90;;;;;;4989302;28;20473;-64
2022/08/22 05:26:27;;;;;;;6.10;5.60;;;15.80;99.90;;;;;;4990112;28;20437;-64
2022/08/22 05:28:58;;;;;;;7.47;6.57;;;15.80;99.90;;;;;;4988031;28;20441;-64
2022/08/22 05:31:33;;;;;;;9.83;6.80;;;15.70;99.90;;;;;;4990123;28;20438;-64
2022/08/22 05:34:04;;;;;;;7.93;7.10;;;15.70;99.90;;;;;;4989747;28;20440;-65
2022/08/22 05:36:38;;;;;;;10.27;6.90;;;15.70;99.90;;;;;;4989047;28;20438;-65
2022/08/22 05:39:18;;;;;;;9.47;7.10;;;15.80;99.90;;;;;;4989926;28;20981;-64
2022/08/22 05:41:44;;;;;;;8.80;7.30;;;16.20;99.90;;;;;;4991694;28;20521;-64
2022/08/22 05:44:24;;;;;;;9.23;7.30;;;16.60;99.90;;;;;;4995423;28;20464;-64
2022/08/22 05:47:16;;;;;;;8.10;7.30;;;16.90;99.90;;;;;;4992732;28;20446;-62
2022/08/22 05:50:02;;;;;;;9.80;6.50;;;17.20;99.90;;;;;;4990862;28;20450;-64
2022/08/22 05:52:53;;;;;;;8.10;7.30;;;17.50;99.90;;;;;;4991466;28;20454;-65
2022/08/22 05:55:51;;;;;;;7.80;6.90;;;17.70;99.90;;;;;;4988844;28;20496;-64
2022/08/22 05:58:31;;;;;;;7.50;6.40;;;18.00;99.90;;;;;;4992629;28;20462;-64
2022/08/22 06:01:24;;;;;;;7.80;6.17;;;18.20;99.90;;;;;;4998100;28;20474;-64
2022/08/22 06:04:03;;;;;;;7.97;7.23;;;18.40;99.90;;;;;;4992106;28;20525;-64
2022/08/22 06:06:32;;;;;;;8.50;7.27;;;18.50;99.90;;;;;;4990282;28;20533;-65
2022/08/22 06:09:18;;;;;;;7.50;6.80;;;18.50;99.90;;;;;;4996653;28;20700;-65
2022/08/22 06:11:52;;;;;;;7.87;6.73;;;18.70;99.90;;;;;;4991047;28;21027;-64
2022/08/22 06:14:28;;;;;;;11.97;7.47;;;18.90;99.90;;;;;;4998290;28;20451;-64
2022/08/22 06:17:02;;;;;;;7.27;6.53;;;19.10;99.90;;;;;;5005170;28;20429;-64
2022/08/22 06:19:28;;;;;;;8.20;7.40;;;19.30;99.90;;;;;;5003864;28;20476;-65
2022/08/22 06:21:56;;;;;;;10.57;7.83;;;19.40;99.90;;;;;;4999844;28;20442;-64
2022/08/22 06:24:25;;;;;;;9.27;6.97;;;19.30;99.90;;;;;;5002163;28;20561;-64
2022/08/22 06:26:53;;;;;;;9.57;8.67;;;19.30;99.90;;;;;;5001201;28;20492;-64
2022/08/22 06:29:37;;;;;;;11.83;10.37;;;19.30;99.90;;;;;;5004684;28;20484;-64
2022/08/22 06:32:15;;;;;;;12.47;10.73;;;18.90;99.90;;;;;;4992367;28;20458;-64
2022/08/22 06:34:44;;;;;;;12.00;10.90;;;19.00;99.90;;;;;;4999200;28;20446;-64
2022/08/22 06:37:18;;;;;;;12.33;11.20;;;18.90;99.90;;;;;;4995517;28;20517;-64
2022/08/22 06:39:48;;;;;;;10.83;9.33;;;19.00;99.90;;;;;;4989314;28;20523;-64
2022/08/22 06:42:20;;;;;;;11.33;10.23;;;19.30;99.90;;;;;;4992796;28;20434;-64
2022/08/22 06:44:50;;;;;;;9.83;8.87;;;19.30;99.90;;;;;;4992120;28;20498;-64
2022/08/22 06:47:27;;;;;;;10.80;9.37;;;19.10;99.90;;;;;;4993436;28;20426;-64
2022/08/22 06:50:00;;;;;;;8.70;7.67;;;19.30;99.90;;;;;;4998101;28;20458;-64
2022/08/22 06:52:28;;;;;;;12.93;8.40;;;19.60;99.90;;;;;;4992564;28;20832;-63
2022/08/22 06:55:01;;;;;;;8.53;7.80;;;19.60;99.90;;;;;;4991511;28;20438;-64
2022/08/22 06:57:43;;;;;;;9.33;8.53;;;19.40;99.90;;;;;;4992538;28;20427;-64
2022/08/22 07:00:15;;;;;;;8.83;7.97;;;19.60;99.90;;;;;;4993912;28;20462;-66
2022/08/22 07:02:45;;;;;;;9.50;8.40;;;19.50;99.90;;;;;;4992917;28;20426;-66
2022/08/22 07:05:21;;;;;;;7.70;7.00;;;19.40;99.90;;;;;;4997542;28;20943;-66
2022/08/22 07:07:48;;;;;;;8.30;6.90;;;19.40;99.90;;;;;;5000830;28;20433;-64
2022/08/22 07:10:15;;;;;;;10.43;7.10;;;19.60;99.90;;;;;;4999734;28;20466;-65
2022/08/22 07:12:46;;;;;;;9.83;7.33;;;20.10;99.90;;;;;;5000417;28;20439;-65
2022/08/22 07:15:32;;;;;;;9.23;7.47;;;20.40;99.90;;;;;;4994859;28;20826;-65
2022/08/22 07:18:01;;;;;;;9.77;6.67;;;20.70;99.90;;;;;;4991318;28;20826;-65
2022/08/22 07:20:32;;;;;;;8.30;7.03;;;21.00;99.90;;;;;;4999311;28;20510;-65
2022/08/22 07:23:11;;;;;;;8.67;7.10;;;21.20;99.90;;;;;;4984917;28;20485;-64
2022/08/22 07:26:17;;;;;;;7.10;6.40;;;21.50;99.90;;;;;;4997787;28;20435;-65
2022/08/22 07:28:49;;;;;;;6.67;6.07;;;21.70;99.90;;;;;;4974899;28;20435;-65
2022/08/22 07:31:31;;;;;;;7.60;6.80;;;21.90;99.90;;;;;;4997240;28;20439;-65
2022/08/22 07:34:21;;;;;;;6.57;6.00;;;22.20;99.90;;;;;;4991033;28;20468;-65
2022/08/22 07:37:36;;;;;;;7.40;6.37;;;22.40;99.90;;;;;;4992687;28;20434;-65
2022/08/22 07:40:23;;;;;;;10.33;7.30;;;22.60;99.90;;;;;;4968428;28;20461;-65
2022/08/22 07:42:51;;;;;;;7.80;6.20;;;22.40;99.90;;;;;;4994444;28;20457;-65
2022/08/22 07:45:26;;;;;;;6.80;6.20;;;22.20;99.90;;;;;;4991175;28;20833;-64
2022/08/22 07:48:07;;;;;;;5.93;5.10;;;22.10;99.90;;;;;;4992554;28;20844;-66
2022/08/22 07:50:56;;;;;;;6.73;5.03;;;22.30;99.90;;;;;;4996936;28;20446;-66
2022/08/22 07:53:41;;;;;;;6.07;5.40;;;22.40;99.90;;;;;;4998631;28;20438;-64
2022/08/22 07:56:15;;;;;;;6.40;5.70;;;22.50;99.10;;;;;;4991328;28;20446;-65
2022/08/22 07:58:44;;;;;;;6.07;5.50;;;22.20;99.30;;;;;;4991259;28;20438;-65
2022/08/22 08:01:18;;;;;;;16.57;14.93;;;22.00;99.90;;;;;;4996945;28;20519;-65
2022/08/22 08:03:51;;;;;;;6.03;5.47;;;22.40;99.90;;;;;;4989193;28;20512;-66
2022/08/22 08:06:16;;;;;;;6.20;5.63;;;22.80;98.50;;;;;;4992164;28;20438;-65
2022/08/22 08:08:43;;;;;;;5.87;5.30;;;22.90;98.30;;;;;;5000218;28;20438;-65
2022/08/22 08:11:13;;;;;;;5.10;4.50;;;23.10;98.00;;;;;;4999779;28;20198;-66
2022/08/22 08:13:43;;;;;;;6.47;5.37;;;23.20;96.90;;;;;;4994161;28;20482;-65
2022/08/22 08:16:21;;;;;;;5.90;4.97;;;23.00;97.00;;;;;;5000021;28;20434;-64
2022/08/22 08:18:49;;;;;;;5.00;4.50;;;23.20;97.30;;;;;;5001587;28;20479;-65
2022/08/22 08:21:38;;;;;;;6.40;4.77;;;23.80;96.30;;;;;;5003266;28;20472;-66
2022/08/22 08:24:06;;;;;;;5.83;5.23;;;23.80;96.10;;;;;;4987205;28;20469;-66
2022/08/22 08:26:38;;;;;;;6.10;4.70;;;24.20;95.50;;;;;;4999601;28;20431;-65
2022/08/22 08:29:07;;;;;;;5.17;4.67;;;24.50;94.20;;;;;;4997316;28;20469;-65
2022/08/22 08:31:39;;;;;;;4.93;4.50;;;24.40;93.40;;;;;;4998816;28;20442;-65
2022/08/22 08:34:09;;;;;;;4.80;4.40;;;24.10;93.30;;;;;;4994282;28;20440;-64
2022/08/22 08:36:38;;;;;;;8.53;5.40;;;24.00;94.50;;;;;;5000161;28;20465;-65
2022/08/22 08:39:13;;;;;;;5.40;4.90;;;24.30;93.80;;;;;;4996564;28;20478;-65
2022/08/22 08:42:07;;;;;;;4.33;3.90;;;24.80;93.80;;;;;;5000732;28;20441;-66
2022/08/22 08:44:51;;;;;;;6.73;5.30;;;25.00;92.80;;;;;;5001583;28;20468;-64
2022/08/22 08:47:39;;;;;;;5.87;5.00;;;24.70;92.80;;;;;;4994552;28;20809;-66
2022/08/22 08:50:42;;;;;;;5.00;4.60;;;23.70;92.90;;;;;;4991373;28;20659;-65
2022/08/22 08:53:46;;;;;;;5.27;4.87;;;24.70;92.40;;;;;;4992665;28;20450;-66
2022/08/22 08:56:20;;;;;;;5.63;4.30;;;25.30;92.00;;;;;;4999337;28;20444;-66
2022/08/22 08:58:46;;;;;;;5.50;5.00;;;25.50;91.40;;;;;;4995585;28;20445;-66
2022/08/22 09:01:24;;;;;;;5.40;4.90;;;25.70;90.70;;;;;;4993445;28;20849;-66
2022/08/22 09:04:27;;;;;;;4.93;4.43;;;25.90;90.70;;;;;;4999924;28;20207;-65
2022/08/22 09:07:14;;;;;;;12.40;5.87;;;26.40;89.60;;;;;;4986513;28;21620;-66
2022/08/22 09:10:08;;;;;;;7.97;5.30;;;26.90;88.30;;;;;;4991244;28;20494;-66
2022/08/22 09:13:07;;;;;;;7.17;4.67;;;27.30;86.50;;;;;;4997920;28;20509;-66
2022/08/22 09:15:39;;;;;;;8.40;7.70;;;27.70;84.30;;;;;;4996634;28;20439;-66
2022/08/22 09:18:32;;;;;;;5.87;5.43;;;28.10;81.80;;;;;;4991996;28;20434;-63
2022/08/22 09:21:31;;;;;;;4.73;4.20;;;28.40;80.60;;;;;;4996111;28;20476;-66
2022/08/22 09:24:24;;;;;;;5.43;5.03;;;29.10;77.40;;;;;;4988845;28;20470;-67
2022/08/22 09:27:00;;;;;;;5.37;4.93;;;29.60;76.90;;;;;;4997434;28;20940;-66
2022/08/22 09:29:52;;;;;;;5.10;4.70;;;30.00;75.30;;;;;;4995723;28;20450;-64
2022/08/22 09:32:27;;;;;;;5.33;4.80;;;30.50;73.50;;;;;;4997173;28;20433;-67
2022/08/22 09:34:56;;;;;;;5.17;4.00;;;31.00;70.60;;;;;;5005111;28;20433;-66
2022/08/22 09:37:47;;;;;;;5.40;4.90;;;31.40;67.30;;;;;;4993475;28;20521;-66
2022/08/22 09:40:44;;;;;;;4.83;4.43;;;32.20;66.20;;;;;;4997374;28;20532;-65
2022/08/22 09:43:18;;;;;;;4.80;4.50;;;32.90;62.30;;;;;;4998546;28;20454;-67
2022/08/22 09:45:49;;;;;;;5.80;4.97;;;33.10;61.00;;;;;;5003378;28;20433;-67
2022/08/22 09:48:52;;;;;;;5.77;5.27;;;33.80;58.60;;;;;;4992488;28;21181;-65
2022/08/22 09:51:20;;;;;;;5.37;4.87;;;33.90;57.50;;;;;;4993983;28;20697;-65
2022/08/22 09:53:48;;;;;;;4.57;4.17;;;34.40;56.80;;;;;;5001350;28;20437;-65
2022/08/22 09:56:39;;;;;;;5.17;4.70;;;34.70;55.10;;;;;;5002451;28;20430;-66
2022/08/22 09:59:20;;;;;;;7.43;3.97;;;35.20;54.30;;;;;;4994517;28;20449;-66
2022/08/22 10:01:56;;;;;;;4.77;4.30;;;35.50;53.30;;;;;;4994908;28;20732;-66
2022/08/22 10:04:45;;;;;;;5.33;4.93;;;34.30;52.90;;;;;;4994776;28;20524;-65
2022/08/22 10:07:34;;;;;;;5.17;4.70;;;34.40;52.90;;;;;;5000362;28;20528;-64
2022/08/22 10:10:24;;;;;;;5.10;4.60;;;35.20;51.50;;;;;;4991924;28;20462;-64
2022/08/22 10:13:22;;;;;;;6.70;4.97;;;36.50;49.70;;;;;;4993427;28;20951;-64
2022/08/22 10:16:40;;;;;;;4.80;4.40;;;36.50;48.30;;;;;;4993654;28;20454;-64
2022/08/22 10:19:28;;;;;;;5.53;4.37;;;37.10;47.60;;;;;;4993396;28;20454;-64
2022/08/22 10:22:21;;;;;;;5.53;5.03;;;38.00;45.80;;;;;;5002901;28;20935;-64
2022/08/22 10:24:49;;;;;;;4.70;4.40;;;38.50;45.30;;;;;;5000447;28;20470;-64
2022/08/22 10:27:19;;;;;;;4.30;4.00;;;38.00;44.60;;;;;;5003153;28;20437;-66
2022/08/22 10:30:16;;;;;;;4.13;3.83;;;38.70;43.20;;;;;;5003962;28;20434;-66
2022/08/22 10:33:01;;;;;;;5.23;3.90;;;38.80;42.00;;;;;;5000865;28;20446;-64
2022/08/22 10:35:36;;;;;;;4.43;3.83;;;39.50;40.70;;;;;;5004719;28;20509;-64
2022/08/22 10:38:19;;;;;;;4.87;4.37;;;38.50;40.80;;;;;;4994086;28;20452;-64
2022/08/22 10:41:05;;;;;;;4.30;3.93;;;39.50;39.90;;;;;;5003851;28;20493;-64
2022/08/22 10:43:51;;;;;;;4.93;4.53;;;39.70;38.40;;;;;;5000053;28;20443;-66
2022/08/22 10:46:24;;;;;;;4.30;4.00;;;40.50;38.30;;;;;;4988521;28;20430;-66
2022/08/22 10:48:58;;;;;;;4.97;4.57;;;40.50;37.50;;;;;;4995087;28;20497;-66
2022/08/22 10:51:48;;;;;;;5.17;4.73;;;40.10;37.80;;;;;;4995888;28;20536;-64
2022/08/22 10:54:27;;;;;;;4.37;3.87;;;39.80;37.40;;;;;;4987820;28;20834;-64
2022/08/22 10:57:43;;;;;;;4.87;4.47;;;40.60;36.70;;;;;;5000828;28;20430;-64
2022/08/22 11:00:19;;;;;;;4.33;3.93;;;41.30;36.20;;;;;;4951757;28;20855;-64
2022/08/22 11:02:49;;;;;;;5.20;4.20;;;41.70;35.70;;;;;;5000336;28;20456;-64
2022/08/22 11:05:17;;;;;;;4.20;3.90;;;41.30;35.00;;;;;;4999406;28;20430;-64
2022/08/22 11:07:49;;;;;;;5.10;4.60;;;39.80;35.60;;;;;;5001805;28;20425;-63
2022/08/22 11:10:34;;;;;;;5.93;4.77;;;40.40;35.70;;;;;;4988070;28;20458;-64
2022/08/22 11:13:12;;;;;;;5.23;4.77;;;41.40;34.80;;;;;;4984622;28;20853;-65
2022/08/22 11:15:43;;;;;;;4.30;4.10;;;42.10;33.60;;;;;;4990812;28;20449;-67
2022/08/22 11:18:21;;;;;;;4.60;4.20;;;40.30;34.90;;;;;;4999773;28;20442;-68
2022/08/22 11:21:26;;;;;;;4.60;4.20;;;39.10;35.50;;;;;;5003246;28;20512;-63
2022/08/22 11:24:15;;;;;;;4.03;3.70;;;40.50;35.60;;;;;;4981924;28;20480;-66
2022/08/22 11:26:49;;;;;;;4.27;3.90;;;42.10;33.90;;;;;;5000519;28;20948;-68
2022/08/22 11:29:48;;;;;;;5.53;5.13;;;42.40;34.70;;;;;;5004043;28;20462;-68
2022/08/22 11:32:32;;;;;;;4.47;4.07;;;42.60;35.30;;;;;;4997901;28;20443;-69
2022/08/22 11:35:18;;;;;;;4.50;4.20;;;44.30;36.70;;;;;;4995580;28;20453;-70
2022/08/22 11:37:59;;;;;;;4.20;3.90;;;44.90;38.50;;;;;;5002642;28;20442;-68
2022/08/22 11:40:36;;;;;;;5.60;5.10;;;44.70;38.40;;;;;;5000147;28;20786;-69
2022/08/22 11:43:48;;;;;;;4.40;4.10;;;45.00;38.20;;;;;;4994256;28;20508;-72
2022/08/22 11:46:28;;;;;;;4.80;4.50;;;45.00;37.10;;;;;;5007072;28;20414;-66
2022/08/22 11:49:08;;;;;;;4.20;4.00;;;44.90;36.40;;;;;;4997664;28;20540;-67
2022/08/22 11:51:51;;;;;;;5.53;5.23;;;43.70;37.30;;;;;;5000503;28;20448;-70
2022/08/22 11:54:49;;;;;;;5.00;4.60;;;43.60;36.80;;;;;;4998320;28;20471;-67
2022/08/22 11:57:23;;;;;;;5.03;4.70;;;41.90;38.10;;;;;;4996176;28;20430;-68
2022/08/22 12:00:18;;;;;;;4.70;4.40;;;43.90;37.10;;;;;;4991802;28;20466;-67
2022/08/22 12:03:21;;;;;;;4.63;4.30;;;44.90;36.10;;;;;;4996585;28;20457;-69
2022/08/22 12:05:59;;;;;;;4.90;4.50;;;44.60;35.50;;;;;;4962343;28;20794;-73
2022/08/22 12:08:34;;;;;;;4.87;4.47;;;42.70;36.50;;;;;;4991423;28;20443;-68
2022/08/22 12:11:28;;;;;;;7.30;5.00;;;44.90;35.70;;;;;;4992815;28;20445;-67
2022/08/22 12:14:01;;;;;;;5.30;4.47;;;45.40;35.20;;;;;;4999807;28;20457;-67
2022/08/22 12:17:04;;;;;;;5.57;5.23;;;45.30;35.20;;;;;;4998595;28;20473;-65
2022/08/22 12:19:51;;;;;;;5.37;4.87;;;44.00;35.00;;;;;;4986968;28;20837;-66
2022/08/22 12:22:42;;;;;;;4.30;4.00;;;42.40;36.30;;;;;;4991788;28;20437;-65
2022/08/22 12:25:34;;;;;;;4.87;4.57;;;43.30;36.50;;;;;;4993008;28;20457;-66
2022/08/22 12:28:30;;;;;;;4.50;4.10;;;44.30;35.50;;;;;;4992915;28;20438;-66
2022/08/22 12:31:26;;;;;;;4.50;4.20;;;45.20;35.00;;;;;;4972840;28;20457;-66
2022/08/22 12:33:57;;;;;;;5.53;5.13;;;45.40;34.90;;;;;;4973372;28;20467;-66
2022/08/22 12:36:47;;;;;;;4.53;4.33;;;45.10;34.40;;;;;;4973339;28;20420;-67
2022/08/22 12:39:37;;;;;;;5.80;5.43;;;45.60;34.60;;;;;;4976280;28;20884;-66
2022/08/22 12:42:42;;;;;;;5.03;4.73;;;46.80;33.50;;;;;;4992563;28;20430;-66
2022/08/22 12:45:26;;;;;;;5.60;5.10;;;47.10;33.20;;;;;;4982575;28;20501;-66
2022/08/22 12:48:08;;;;;;;5.20;4.73;;;46.40;33.00;;;;;;4986856;28;20510;-64
2022/08/22 12:50:39;;;;;;;5.23;4.70;;;46.30;32.90;;;;;;4988604;28;20915;-65
2022/08/22 12:53:26;;;;;;;5.20;4.83;;;45.30;32.90;;;;;;4990611;28;20458;-65
2022/08/22 12:56:03;;;;;;;5.27;4.40;;;45.70;33.10;;;;;;4992146;28;20439;-65
2022/08/22 12:58:56;;;;;;;4.63;4.33;;;47.20;32.20;;;;;;4991092;28;20476;-67
2022/08/22 13:01:22;;;;;;;5.07;4.73;;;47.40;31.80;;;;;;5013654;23;20902;-69
2022/08/22 13:03:56;;;;;;;4.73;4.43;;;46.90;32.60;;;;;;4988807;28;20453;-67
2022/08/22 13:06:36;;;;;;;4.30;4.00;;;46.20;32.40;;;;;;4992779;28;20433;-68
2022/08/22 13:09:27;;;;;;;4.83;4.50;;;46.40;32.90;;;;;;4991788;28;20434;-67
2022/08/22 13:11:56;;;;;;;4.60;4.40;;;43.60;33.80;;;;;;4968815;28;20511;-67
2022/08/22 13:14:25;;;;;;;5.33;4.93;;;40.40;35.40;;;;;;4973375;28;20470;-67
2022/08/22 13:16:54;;;;;;;6.07;4.80;;;38.00;36.80;;;;;;4971710;28;20450;-67
2022/08/22 13:19:31;;;;;;;5.17;4.77;;;36.80;39.10;;;;;;4971921;28;20427;-67
2022/08/22 13:22:06;;;;;;;4.50;4.20;;;35.10;40.40;;;;;;4972103;28;20920;-65
2022/08/22 13:25:30;;;;;;;4.97;4.57;;;34.00;41.30;;;;;;4969316;28;20433;-67
2022/08/22 13:28:00;;;;;;;4.10;3.80;;;33.70;40.30;;;;;;4933512;29;20453;-66
2022/08/22 13:30:34;;;;;;;6.37;4.63;;;33.00;40.90;;;;;;4965448;28;20486;-65
2022/08/22 13:33:13;;;;;;;4.13;3.83;;;32.30;41.70;;;;;;4953266;28;20794;-65
2022/08/22 13:35:47;;;;;;;5.10;4.70;;;32.10;43.50;;;;;;4972030;28;20443;-66
2022/08/22 13:38:26;;;;;;;4.43;4.10;;;33.10;42.00;;;;;;4971609;28;20463;-69
2022/08/22 13:40:55;;;;;;;4.73;4.37;;;35.30;40.40;;;;;;4953892;28;20440;-65
2022/08/22 13:43:25;;;;;;;4.40;4.10;;;35.40;40.00;;;;;;4969165;28;20454;-65
2022/08/22 13:45:58;;;;;;;4.67;4.30;;;34.00;40.30;;;;;;4970253;28;20573;-67
2022/08/22 13:48:28;;;;;;;4.07;3.77;;;32.90;41.70;;;;;;4972203;28;21014;-67
2022/08/22 13:51:02;;;;;;;4.10;3.80;;;33.40;42.10;;;;;;4964028;28;20451;-68
2022/08/22 13:53:39;;;;;;;3.83;3.60;;;33.00;41.30;;;;;;4968227;28;20982;-68
2022/08/22 13:56:19;;;;;;;4.63;4.13;;;33.00;42.00;;;;;;4971262;28;20488;-66
2022/08/22 13:58:49;;;;;;;4.60;4.20;;;33.60;42.00;;;;;;4971037;28;20431;-66